createdAt,value
2017-12-25T00:02:10.749Z,80.13
2017-12-25T00:04:36.630Z,80.03
2017-12-25T00:07:02.564Z,79.78
2017-12-25T00:09:28.376Z,79.31
2017-12-25T00:11:54.551Z,79.49
2017-12-25T00:14:24.019Z,79.70
2017-12-25T00:16:49.920Z,79.76
2017-12-25T00:19:15.858Z,79.30
2017-12-25T00:21:41.738Z,79.16
2017-12-25T00:24:07.645Z,79.91
2017-12-25T00:26:34.010Z,79.69
2017-12-25T00:28:59.858Z,79.77
2017-12-25T00:31:28.659Z,80.07
2017-12-25T00:36:49.064Z,79.50
2017-12-25T00:39:14.935Z,79.17
2017-12-25T00:41:40.908Z,79.46
2017-12-25T00:44:06.799Z,79.64
2017-12-25T00:46:32.684Z,79.98
2017-12-25T00:48:58.579Z,80.36
2017-12-25T00:51:24.441Z,80.56
2017-12-25T00:53:50.324Z,81.59
2017-12-25T00:56:16.188Z,81.68
2017-12-25T00:58:48.156Z,81.85
2017-12-25T01:01:14.069Z,82.14
2017-12-25T01:03:39.915Z,82.26
2017-12-25T01:06:05.816Z,82.46
2017-12-25T01:08:31.663Z,82.18
2017-12-25T01:10:57.545Z,82.00
2017-12-25T01:13:23.384Z,82.09
2017-12-25T01:15:49.264Z,82.34
2017-12-25T01:18:15.118Z,82.63
2017-12-25T01:20:41.013Z,82.55
2017-12-25T01:23:07.000Z,82.25
2017-12-25T01:25:32.896Z,82.07
2017-12-25T01:27:58.832Z,81.76
2017-12-25T01:30:24.718Z,81.59
2017-12-25T01:32:50.593Z,81.30
2017-12-25T01:35:16.489Z,81.52
2017-12-25T01:37:42.382Z,81.47
2017-12-25T01:40:08.250Z,81.75
2017-12-25T01:42:34.271Z,81.50
2017-12-25T01:45:00.124Z,81.45
2017-12-25T01:47:25.997Z,81.65
2017-12-25T01:49:54.439Z,82.02
2017-12-25T01:52:20.289Z,82.00
2017-12-25T01:54:49.562Z,82.09
2017-12-25T02:00:34.206Z,81.66
2017-12-25T02:03:00.087Z,81.83
2017-12-25T02:05:28.927Z,82.28
2017-12-25T02:11:02.204Z,81.93
2017-12-25T02:13:28.084Z,82.13
2017-12-25T02:15:53.945Z,82.25
2017-12-25T02:18:19.816Z,82.37
2017-12-25T02:20:45.683Z,82.25
2017-12-25T02:23:11.533Z,82.59
2017-12-25T02:25:39.325Z,82.49
2017-12-25T02:28:05.189Z,82.87
2017-12-25T02:30:31.016Z,82.97
2017-12-25T02:32:57.173Z,82.75
2017-12-25T02:35:23.042Z,82.97
2017-12-25T02:37:50.860Z,83.59
2017-12-25T02:40:16.724Z,83.73
2017-12-25T02:42:46.375Z,84.05
2017-12-25T02:45:12.222Z,83.98
2017-12-25T02:47:41.453Z,83.69
2017-12-25T02:50:07.321Z,83.71
2017-12-25T02:52:34.573Z,84.03
2017-12-25T02:55:00.431Z,84.10
2017-12-25T02:57:29.767Z,83.85
2017-12-25T02:59:55.632Z,83.97
2017-12-25T03:02:24.090Z,84.15
2017-12-25T03:04:49.991Z,83.94
2017-12-25T03:07:15.865Z,83.94
2017-12-25T03:09:41.710Z,84.12
2017-12-25T03:12:07.568Z,83.88
2017-12-25T03:14:35.902Z,83.86
2017-12-25T03:17:01.755Z,83.96
2017-12-25T03:19:31.022Z,83.78
2017-12-25T03:21:56.881Z,83.58
2017-12-25T03:24:25.944Z,83.74
2017-12-25T03:26:51.799Z,84.01
2017-12-25T03:29:21.134Z,84.25
2017-12-25T03:31:46.980Z,84.48
2017-12-25T03:34:14.515Z,84.48
2017-12-25T03:36:40.346Z,84.50
2017-12-25T03:39:09.700Z,84.48
2017-12-25T03:41:35.532Z,84.57
2017-12-25T03:44:01.384Z,84.92
2017-12-25T03:46:27.257Z,84.93
2017-12-25T03:48:53.134Z,84.82
2017-12-25T03:51:21.802Z,84.77
2017-12-25T03:53:47.608Z,84.74
2017-12-25T03:56:15.714Z,83.85
2017-12-25T03:58:41.561Z,84.25
2017-12-25T04:01:11.168Z,84.26
2017-12-25T04:03:37.049Z,84.38
2017-12-25T04:06:05.879Z,84.63
2017-12-25T04:08:31.725Z,84.79
2017-12-25T04:10:59.819Z,84.97
2017-12-25T04:13:25.665Z,85.01
2017-12-25T04:15:54.265Z,84.95
2017-12-25T04:18:20.171Z,85.24
2017-12-25T04:20:46.006Z,85.64
2017-12-25T04:23:11.844Z,86.15
2017-12-25T04:25:37.713Z,86.23
2017-12-25T04:28:06.126Z,86.02
2017-12-25T04:30:31.968Z,85.75
2017-12-25T04:33:00.359Z,85.61
2017-12-25T04:35:26.256Z,85.47
2017-12-25T04:40:23.142Z,85.64
2017-12-25T04:42:52.234Z,85.36
2017-12-25T04:45:18.106Z,85.17
2017-12-25T04:47:45.506Z,84.91
2017-12-25T04:50:11.395Z,85.00
2017-12-25T04:52:40.635Z,85.06
2017-12-25T04:55:06.485Z,85.17
2017-12-25T04:57:32.348Z,85.35
2017-12-25T04:59:58.222Z,85.18
2017-12-25T05:02:24.075Z,85.30
2017-12-25T05:04:51.762Z,85.04
2017-12-25T05:07:17.653Z,84.96
2017-12-25T05:09:47.151Z,85.11
2017-12-25T05:12:13.039Z,85.27
2017-12-25T05:14:41.074Z,85.35
2017-12-25T05:17:06.921Z,85.32
2017-12-25T05:19:35.806Z,85.37
2017-12-25T05:22:01.661Z,85.07
2017-12-25T05:24:31.069Z,85.03
2017-12-25T05:26:57.868Z,84.84
2017-12-25T05:29:26.803Z,84.97
2017-12-25T05:31:52.703Z,84.82
2017-12-25T05:34:18.541Z,84.77
2017-12-25T05:36:44.383Z,84.88
2017-12-25T05:39:10.296Z,84.79
2017-12-25T05:41:37.197Z,84.81
2017-12-25T05:44:03.067Z,84.85
2017-12-25T05:46:32.043Z,84.92
2017-12-25T05:48:57.917Z,85.11
2017-12-25T05:51:27.277Z,85.08
2017-12-25T05:53:53.191Z,85.18
2017-12-25T05:56:21.077Z,84.99
2017-12-25T05:58:46.932Z,85.07
2017-12-25T06:01:15.637Z,85.31
2017-12-25T06:03:41.482Z,84.96
2017-12-25T06:06:10.870Z,84.64
2017-12-25T06:08:36.741Z,84.84
2017-12-25T06:11:02.641Z,84.63
2017-12-25T06:13:28.474Z,85.00
2017-12-25T06:15:54.312Z,84.77
2017-12-25T06:18:21.923Z,84.48
2017-12-25T06:20:47.798Z,84.06
2017-12-25T06:23:16.679Z,84.40
2017-12-25T06:25:42.545Z,84.04
2017-12-25T06:28:11.952Z,84.47
2017-12-25T06:30:37.816Z,84.87
2017-12-25T06:33:06.248Z,84.75
2017-12-25T06:35:32.127Z,85.52
2017-12-25T06:38:01.399Z,85.66
2017-12-25T06:40:27.281Z,85.37
2017-12-25T06:42:56.409Z,85.08
2017-12-25T06:45:22.280Z,85.19
2017-12-25T06:47:48.179Z,85.30
2017-12-25T06:50:14.040Z,85.48
2017-12-25T06:52:39.896Z,85.26
2017-12-25T06:55:07.643Z,85.05
2017-12-25T06:57:33.487Z,84.81
2017-12-25T07:00:02.594Z,84.56
2017-12-25T07:02:28.451Z,84.58
2017-12-25T07:04:56.905Z,85.96
2017-12-25T07:07:22.759Z,85.80
2017-12-25T07:09:52.785Z,85.83
2017-12-25T07:12:18.593Z,85.76
2017-12-25T07:14:46.228Z,85.53
2017-12-25T07:17:12.097Z,84.98
2017-12-25T07:19:43.085Z,85.16
2017-12-25T07:22:08.934Z,85.22
2017-12-25T07:24:34.907Z,85.37
2017-12-25T07:27:04.395Z,85.37
2017-12-25T07:29:30.207Z,85.79
2017-12-25T07:31:56.030Z,85.57
2017-12-25T07:34:21.885Z,85.72
2017-12-25T07:36:47.714Z,85.30
2017-12-25T07:39:13.632Z,85.17
2017-12-25T07:41:43.120Z,85.13
2017-12-25T07:44:08.970Z,85.41
2017-12-25T07:46:38.250Z,85.54
2017-12-25T07:49:04.095Z,85.50
2017-12-25T07:51:33.288Z,85.74
2017-12-25T07:53:59.134Z,85.62
2017-12-25T07:56:26.612Z,85.74
2017-12-25T07:58:52.464Z,85.86
2017-12-25T08:01:18.261Z,86.34
2017-12-25T08:03:44.078Z,86.66
2017-12-25T08:06:09.886Z,86.99
2017-12-25T08:08:39.064Z,87.13
2017-12-25T08:11:04.871Z,87.48
2017-12-25T08:13:34.018Z,87.63
2017-12-25T08:15:59.857Z,86.95
2017-12-25T08:18:27.656Z,86.87
2017-12-25T08:20:53.547Z,87.59
2017-12-25T08:23:22.924Z,87.58
2017-12-25T08:25:48.769Z,87.45
2017-12-25T08:28:17.809Z,87.30
2017-12-25T08:30:43.667Z,87.23
2017-12-25T08:33:13.129Z,87.22
2017-12-25T08:35:38.964Z,87.35
2017-12-25T08:38:04.804Z,87.34
2017-12-25T08:40:30.703Z,87.61
2017-12-25T08:42:56.536Z,87.29
2017-12-25T08:45:23.373Z,89.99
2017-12-25T08:47:49.228Z,88.25
2017-12-25T08:50:18.310Z,86.42
2017-12-25T08:52:44.194Z,85.69
2017-12-25T08:55:12.894Z,85.48
2017-12-25T08:57:38.732Z,85.34
2017-12-25T09:00:07.380Z,85.43
2017-12-25T09:02:33.214Z,86.75
2017-12-25T09:05:02.217Z,87.31
2017-12-25T09:07:28.078Z,87.40
2017-12-25T09:09:56.713Z,87.40
2017-12-25T09:12:22.531Z,87.20
2017-12-25T09:14:48.390Z,86.98
2017-12-25T09:17:14.193Z,87.27
2017-12-25T09:19:40.040Z,87.42
2017-12-25T09:22:10.112Z,87.20
2017-12-25T09:24:35.932Z,86.54
2017-12-25T09:27:03.727Z,86.40
2017-12-25T09:29:29.540Z,86.44
2017-12-25T09:31:58.518Z,87.01
2017-12-25T09:34:24.357Z,86.78
2017-12-25T09:36:53.637Z,86.59
2017-12-25T09:39:19.502Z,87.87
2017-12-25T09:41:48.891Z,88.48
2017-12-25T09:44:14.769Z,89.13
2017-12-25T09:46:44.037Z,89.49
2017-12-25T09:49:09.849Z,89.12
2017-12-25T09:51:35.698Z,88.79
2017-12-25T09:54:01.521Z,88.63
2017-12-25T09:56:27.380Z,88.51
2017-12-25T09:58:54.048Z,87.94
2017-12-25T10:01:19.913Z,88.03
2017-12-25T10:03:48.898Z,87.60
2017-12-25T10:06:14.716Z,87.90
2017-12-25T10:08:44.951Z,87.64
2017-12-25T10:11:10.756Z,86.80
2017-12-25T10:13:40.127Z,86.46
2017-12-25T10:16:05.973Z,86.31
2017-12-25T10:18:33.210Z,85.95
2017-12-25T10:20:59.076Z,86.00
2017-12-25T10:23:28.202Z,85.03
2017-12-25T10:25:54.044Z,85.18
2017-12-25T10:28:19.916Z,85.00
2017-12-25T10:30:45.774Z,84.84
2017-12-25T10:33:11.640Z,84.83
2017-12-25T10:35:40.404Z,84.66
2017-12-25T10:38:06.228Z,84.53
2017-12-25T10:40:35.036Z,84.84
2017-12-25T10:43:00.908Z,85.36
2017-12-25T10:45:28.922Z,85.87
2017-12-25T10:47:54.761Z,86.10
2017-12-25T10:50:23.372Z,85.65
2017-12-25T10:52:49.214Z,84.59
2017-12-25T10:55:18.341Z,84.10
2017-12-25T10:57:44.187Z,83.01
2017-12-25T11:00:13.548Z,82.20
2017-12-25T11:02:39.431Z,81.53
2017-12-25T11:05:05.293Z,81.16
2017-12-25T11:07:31.111Z,81.29
2017-12-25T11:09:56.950Z,81.11
2017-12-25T11:12:26.353Z,79.93
2017-12-25T11:14:52.207Z,78.27
2017-12-25T11:17:21.090Z,72.93
2017-12-25T11:19:46.964Z,68.46
2017-12-25T11:22:14.266Z,64.84
2017-12-25T11:24:40.057Z,62.90
2017-12-25T11:27:08.557Z,61.11
2017-12-25T11:29:34.359Z,60.69
2017-12-25T11:32:00.924Z,60.24
2017-12-25T11:34:28.866Z,60.46
2017-12-25T11:36:58.146Z,60.21
2017-12-25T11:39:24.055Z,59.73
2017-12-25T11:41:49.916Z,60.09
2017-12-25T11:44:15.775Z,57.70
2017-12-25T11:46:41.643Z,56.30
2017-12-25T11:49:10.616Z,55.85
2017-12-25T11:51:36.438Z,53.46
2017-12-25T11:54:04.574Z,51.64
2017-12-25T11:56:30.438Z,50.49
2017-12-25T11:58:59.750Z,49.17
2017-12-25T12:01:25.589Z,48.79
2017-12-25T12:03:55.239Z,46.97
2017-12-25T12:06:21.070Z,48.24
2017-12-25T12:08:49.806Z,48.31
2017-12-25T12:11:15.640Z,49.65
2017-12-25T12:13:45.016Z,48.96
2017-12-25T12:16:10.885Z,49.81
2017-12-25T12:18:36.771Z,51.55
2017-12-25T12:21:02.603Z,51.02
2017-12-25T12:23:28.496Z,50.96
2017-12-25T12:25:56.192Z,52.11
2017-12-25T12:28:21.994Z,52.26
2017-12-25T12:30:49.799Z,51.11
2017-12-25T12:33:15.625Z,50.33
2017-12-25T12:35:44.313Z,50.37
2017-12-25T12:38:10.161Z,50.47
2017-12-25T12:43:07.010Z,51.32
2017-12-25T12:45:34.582Z,51.84
2017-12-25T12:48:00.431Z,50.17
2017-12-25T12:50:29.718Z,48.51
2017-12-25T12:52:55.570Z,48.59
2017-12-25T12:55:21.392Z,49.57
2017-12-25T12:57:47.207Z,50.75
2017-12-25T13:00:13.029Z,49.71
2017-12-25T13:02:40.537Z,48.51
2017-12-25T13:05:06.362Z,48.11
2017-12-25T13:07:35.475Z,46.85
2017-12-25T13:10:01.302Z,48.35
2017-12-25T13:12:30.940Z,49.61
2017-12-25T13:14:56.787Z,49.68
2017-12-25T13:17:26.061Z,47.56
2017-12-25T13:19:51.888Z,46.40
2017-12-25T13:22:21.272Z,47.52
2017-12-25T13:24:47.108Z,49.32
2017-12-25T13:27:14.691Z,46.74
2017-12-25T13:29:40.506Z,47.00
2017-12-25T13:32:06.351Z,46.34
2017-12-25T13:34:32.203Z,44.50
2017-12-25T13:36:58.073Z,47.31
2017-12-25T13:39:26.109Z,45.00
2017-12-25T13:41:51.986Z,45.95
2017-12-25T13:44:20.791Z,48.38
2017-12-25T13:46:46.653Z,48.78
2017-12-25T13:49:15.797Z,51.48
2017-12-25T13:51:41.654Z,49.46
2017-12-25T13:54:11.034Z,51.49
2017-12-25T13:56:36.893Z,50.02
2017-12-25T13:59:05.764Z,51.30
2017-12-25T14:01:31.588Z,52.05
2017-12-25T14:03:59.171Z,50.27
2017-12-25T14:06:25.076Z,50.87
2017-12-25T14:08:50.968Z,53.08
2017-12-25T14:11:16.803Z,53.33
2017-12-25T14:13:42.654Z,54.81
2017-12-25T14:16:11.718Z,54.72
2017-12-25T14:18:37.549Z,55.13
2017-12-25T14:21:06.746Z,55.59
2017-12-25T14:23:32.565Z,55.15
2017-12-25T14:26:01.899Z,54.02
2017-12-25T14:28:27.781Z,53.11
2017-12-25T14:30:55.298Z,53.95
2017-12-25T14:33:21.171Z,54.39
2017-12-25T14:35:50.911Z,54.41
2017-12-25T14:38:16.769Z,56.35
2017-12-25T14:40:45.043Z,55.71
2017-12-25T14:43:10.847Z,55.65
2017-12-25T14:45:36.684Z,55.84
2017-12-25T14:48:02.516Z,55.44
2017-12-25T14:50:28.360Z,55.86
2017-12-25T14:52:56.658Z,56.35
2017-12-25T14:55:22.510Z,56.61
2017-12-25T14:57:51.561Z,57.19
2017-12-25T15:00:17.424Z,57.87
2017-12-25T15:02:47.212Z,58.44
2017-12-25T15:05:13.005Z,59.07
2017-12-25T15:07:40.737Z,59.44
2017-12-25T15:10:06.573Z,59.84
2017-12-25T15:12:35.969Z,58.73
2017-12-25T15:15:01.824Z,58.60
2017-12-25T15:17:31.008Z,59.64
2017-12-25T15:19:56.850Z,59.98
2017-12-25T15:22:22.681Z,60.60
2017-12-25T15:24:48.490Z,60.74
2017-12-25T15:27:14.318Z,60.93
2017-12-25T15:29:41.656Z,61.52
2017-12-25T15:32:07.534Z,62.05
2017-12-25T15:34:36.500Z,62.29
2017-12-25T15:37:02.352Z,62.39
2017-12-25T15:39:31.002Z,63.07
2017-12-25T15:41:56.894Z,63.36
2017-12-25T15:44:23.364Z,63.48
2017-12-25T15:46:49.190Z,63.45
2017-12-25T15:49:15.066Z,64.39
2017-12-25T15:51:43.974Z,65.72
2017-12-25T15:54:09.774Z,66.58
2017-12-25T15:56:37.417Z,66.78
2017-12-25T15:59:03.237Z,67.14
2017-12-25T16:01:29.815Z,67.42
2017-12-25T16:03:57.769Z,68.06
2017-12-25T16:08:54.433Z,68.48
2017-12-25T16:11:23.438Z,68.49
2017-12-25T16:13:49.325Z,69.08
2017-12-25T16:16:39.962Z,69.23
2017-12-25T16:19:05.821Z,69.35
2017-12-25T16:21:31.659Z,70.49
2017-12-25T16:23:57.493Z,70.95
2017-12-25T16:26:23.367Z,71.01
2017-12-25T16:28:49.233Z,71.23
2017-12-25T16:31:15.071Z,71.55
2017-12-25T16:33:40.913Z,72.19
2017-12-25T16:36:06.769Z,72.36
2017-12-25T16:38:32.638Z,72.21
2017-12-25T16:40:58.523Z,71.60
2017-12-25T16:43:24.363Z,71.97
2017-12-25T16:45:50.229Z,72.61
2017-12-25T16:48:16.054Z,72.58
2017-12-25T16:50:41.881Z,72.46
2017-12-25T16:53:07.746Z,72.34
2017-12-25T16:55:33.590Z,72.47
2017-12-25T16:57:59.482Z,72.81
2017-12-25T17:00:25.325Z,72.76
2017-12-25T17:02:51.250Z,73.24
2017-12-25T17:05:17.062Z,73.15
2017-12-25T17:07:46.459Z,73.26
2017-12-25T17:10:12.309Z,73.54
2017-12-25T17:12:38.153Z,74.12
2017-12-25T17:15:04.027Z,74.20
2017-12-25T17:17:29.872Z,74.20
2017-12-25T17:19:57.433Z,74.21
2017-12-25T17:22:23.251Z,74.80
2017-12-25T17:27:19.983Z,75.37
2017-12-25T17:29:48.973Z,75.98
2017-12-25T17:32:14.802Z,76.08
2017-12-25T17:34:41.794Z,75.60
2017-12-25T17:37:07.625Z,75.88
2017-12-25T17:39:36.912Z,75.66
2017-12-25T17:42:02.756Z,75.81
2017-12-25T17:44:32.180Z,75.87
2017-12-25T17:46:58.012Z,76.08
2017-12-25T17:49:23.811Z,76.34
2017-12-25T17:51:49.637Z,76.85
2017-12-25T17:54:15.441Z,76.75
2017-12-25T17:56:44.575Z,77.34
2017-12-25T17:59:10.409Z,77.46
2017-12-25T18:01:37.713Z,76.37
2017-12-25T18:04:03.535Z,76.51
2017-12-25T18:06:32.533Z,77.64
2017-12-25T18:08:58.350Z,77.61
2017-12-25T18:11:27.716Z,77.54
2017-12-25T18:13:53.557Z,77.28
2017-12-25T18:16:22.713Z,77.29
2017-12-25T18:18:48.505Z,77.74
2017-12-25T18:21:17.553Z,78.05
2017-12-25T18:23:43.373Z,78.64
2017-12-25T18:26:09.194Z,77.68
2017-12-25T18:28:35.069Z,77.13
2017-12-25T18:31:00.938Z,77.47
2017-12-25T18:33:29.970Z,77.42
2017-12-25T18:35:55.825Z,77.61
2017-12-25T18:38:24.825Z,78.33
2017-12-25T18:40:50.713Z,78.17
2017-12-25T18:43:19.592Z,77.59
2017-12-25T18:45:45.402Z,78.03
2017-12-25T18:48:14.480Z,78.44
2017-12-25T18:50:40.306Z,78.69
2017-12-25T18:53:07.334Z,78.62
2017-12-25T18:55:33.183Z,78.86
2017-12-25T18:58:01.627Z,79.26
2017-12-25T19:00:27.445Z,79.28
2017-12-25T19:02:53.263Z,79.14
2017-12-25T19:05:19.139Z,78.90
2017-12-25T19:07:44.982Z,78.99
2017-12-25T19:10:13.907Z,78.85
2017-12-25T19:12:39.809Z,79.10
2017-12-25T19:15:09.061Z,79.29
2017-12-25T19:17:34.897Z,79.98
2017-12-25T19:20:02.846Z,80.25
2017-12-25T19:22:28.746Z,79.54
2017-12-25T19:24:57.478Z,77.86
2017-12-25T19:27:23.350Z,76.24
2017-12-25T19:32:19.888Z,75.38
2017-12-25T19:34:47.578Z,75.42
2017-12-25T19:37:13.443Z,75.99
2017-12-25T19:39:39.294Z,77.24
2017-12-25T19:42:05.126Z,78.13
2017-12-25T19:44:30.956Z,77.09
2017-12-25T19:46:59.885Z,76.76
2017-12-25T19:49:25.754Z,78.17
2017-12-25T19:51:54.970Z,78.93
2017-12-25T19:54:20.829Z,79.11
2017-12-25T19:56:48.494Z,79.18
2017-12-25T19:59:14.343Z,79.14
2017-12-25T20:01:43.815Z,79.27
2017-12-25T20:04:09.600Z,79.20
2017-12-25T20:06:39.405Z,79.80
2017-12-25T20:09:05.231Z,79.40
2017-12-25T20:11:34.394Z,79.03
2017-12-25T20:14:00.278Z,78.95
2017-12-25T20:16:26.153Z,79.17
2017-12-25T20:18:51.970Z,79.29
2017-12-25T20:21:17.798Z,79.25
2017-12-25T20:23:44.715Z,79.29
2017-12-25T20:26:10.577Z,79.09
2017-12-25T20:28:39.873Z,79.71
2017-12-25T20:31:05.729Z,79.85
2017-12-25T20:33:34.989Z,79.87
2017-12-25T20:36:00.860Z,78.47
2017-12-25T20:38:28.676Z,76.60
2017-12-25T20:40:54.527Z,75.29
2017-12-25T20:43:23.796Z,75.44
2017-12-25T20:45:49.657Z,75.98
2017-12-25T20:48:18.239Z,75.83
2017-12-25T20:50:44.069Z,75.36
2017-12-25T20:53:09.913Z,75.29
2017-12-25T20:55:35.741Z,75.60
2017-12-25T20:58:01.555Z,75.29
2017-12-25T21:00:31.304Z,75.46
2017-12-25T21:02:57.128Z,73.19
2017-12-25T21:05:24.414Z,72.23
2017-12-25T21:07:50.269Z,70.98
2017-12-25T21:10:19.974Z,69.93
2017-12-25T21:12:45.818Z,69.53
2017-12-25T21:15:14.802Z,70.31
2017-12-25T21:17:40.634Z,71.01
2017-12-25T21:20:09.636Z,71.27
2017-12-25T21:22:35.459Z,71.43
2017-12-25T21:25:03.775Z,71.82
2017-12-25T21:30:19.949Z,71.90
2017-12-25T21:32:45.800Z,71.18
2017-12-25T21:35:11.671Z,70.69
2017-12-25T21:37:37.531Z,70.92
2017-12-25T21:40:03.352Z,69.94
2017-12-25T21:42:29.224Z,69.04
2017-12-25T21:44:55.062Z,68.76
2017-12-25T21:47:20.933Z,67.61
2017-12-25T21:49:46.790Z,67.00
2017-12-25T21:52:12.646Z,66.82
2017-12-25T21:54:38.530Z,66.57
2017-12-25T21:57:04.396Z,66.32
2017-12-25T21:59:30.232Z,66.41
2017-12-25T22:01:56.116Z,66.24
2017-12-25T22:04:21.952Z,66.58
2017-12-25T22:06:47.823Z,66.97
2017-12-25T22:09:13.722Z,66.77
2017-12-25T22:11:39.524Z,66.22
2017-12-25T22:14:05.365Z,66.10
2017-12-25T22:16:31.202Z,65.97
2017-12-25T22:18:57.099Z,65.59
2017-12-25T22:21:22.937Z,65.75
2017-12-25T22:23:50.090Z,65.73
2017-12-25T22:26:15.957Z,65.48
2017-12-25T22:28:45.154Z,65.14
2017-12-25T22:31:10.990Z,65.21
2017-12-25T22:33:39.158Z,64.66
2017-12-25T22:36:05.023Z,64.14
2017-12-25T22:38:33.640Z,63.67
2017-12-25T22:40:59.505Z,63.72
2017-12-25T22:43:25.330Z,63.56
2017-12-25T22:45:51.216Z,63.42
2017-12-25T22:48:17.051Z,62.89
2017-12-25T22:50:46.481Z,62.87
2017-12-25T22:53:12.314Z,62.86
2017-12-25T22:55:40.314Z,62.94
2017-12-25T22:58:06.220Z,62.83
2017-12-25T23:00:35.409Z,62.84
2017-12-25T23:03:01.218Z,62.37
2017-12-25T23:05:30.668Z,62.30
2017-12-25T23:07:56.496Z,62.34
2017-12-25T23:10:25.842Z,62.26
2017-12-25T23:12:51.696Z,62.12
2017-12-25T23:15:20.766Z,62.27
2017-12-25T23:17:46.599Z,62.37
2017-12-25T23:20:12.475Z,62.44
2017-12-25T23:22:38.298Z,62.52
2017-12-25T23:25:04.180Z,62.81
2017-12-25T23:27:31.269Z,62.84
2017-12-25T23:29:57.084Z,63.04
2017-12-25T23:32:26.561Z,63.09
2017-12-25T23:34:52.401Z,63.30
2017-12-25T23:37:21.395Z,63.42
2017-12-25T23:39:47.234Z,63.47
2017-12-25T23:42:16.523Z,63.34
2017-12-25T23:44:42.377Z,63.33
2017-12-25T23:47:11.632Z,63.51
2017-12-25T23:49:37.499Z,63.44
2017-12-25T23:52:04.675Z,63.45
2017-12-25T23:54:30.536Z,63.37
2017-12-25T23:56:56.393Z,63.71
2017-12-25T23:59:22.227Z,63.88
